createdAt,value
2023-07-21T00:00:19.337Z,2.40
2023-07-21T00:02:46.737Z,2.00
2023-07-21T00:05:15.215Z,1.80
2023-07-21T00:07:42.462Z,2.30
2023-07-21T00:10:10.585Z,1.70
2023-07-21T00:12:41.394Z,1.90
2023-07-21T00:15:09.670Z,1.97
2023-07-21T00:17:36.642Z,1.60
2023-07-21T00:20:12.387Z,1.80
2023-07-21T00:22:41.213Z,1.60
2023-07-21T00:25:12.097Z,2.20
2023-07-21T00:27:40.457Z,2.50
2023-07-21T00:30:10.584Z,2.10
2023-07-21T00:32:38.205Z,2.00
2023-07-21T00:35:10.157Z,2.00
2023-07-21T00:37:38.453Z,2.37
2023-07-21T00:40:06.793Z,2.03
2023-07-21T00:42:33.755Z,1.90
2023-07-21T00:45:00.615Z,1.80
2023-07-21T00:47:28.674Z,1.90
2023-07-21T00:49:57.855Z,1.87
2023-07-21T00:52:28.169Z,2.00
2023-07-21T00:54:55.833Z,2.07
2023-07-21T00:57:23.593Z,1.90
2023-07-21T00:59:52.181Z,1.90
2023-07-21T01:02:19.502Z,2.57
2023-07-21T01:04:47.639Z,1.83
2023-07-21T01:07:16.312Z,2.37
2023-07-21T01:09:44.815Z,1.97
2023-07-21T01:12:13.198Z,1.90
2023-07-21T01:14:40.202Z,1.90
2023-07-21T01:17:09.029Z,1.93
2023-07-21T01:19:37.955Z,2.20
2023-07-21T01:22:13.209Z,2.23
2023-07-21T01:24:47.657Z,2.30
2023-07-21T01:27:17.029Z,2.10
2023-07-21T01:29:45.045Z,2.00
2023-07-21T01:32:13.746Z,1.90
2023-07-21T01:34:41.731Z,2.30
2023-07-21T01:37:09.756Z,2.20
2023-07-21T01:39:38.117Z,2.07
2023-07-21T01:42:06.639Z,1.93
2023-07-21T01:44:34.313Z,1.60
2023-07-21T01:47:01.625Z,1.83
2023-07-21T01:49:28.634Z,1.60
2023-07-21T01:51:59.823Z,1.97
2023-07-21T01:54:41.795Z,2.60
2023-07-21T01:57:10.966Z,2.10
2023-07-21T01:59:40.357Z,2.23
2023-07-21T02:02:07.940Z,2.00
2023-07-21T02:04:36.298Z,2.13
2023-07-21T02:07:03.226Z,1.77
2023-07-21T02:09:30.041Z,2.20
2023-07-21T02:11:57.001Z,2.27
2023-07-21T02:14:24.111Z,2.10
2023-07-21T02:16:50.992Z,2.00
2023-07-21T02:19:19.088Z,1.90
2023-07-21T02:21:46.009Z,1.67
2023-07-21T02:24:13.150Z,1.83
2023-07-21T02:26:40.048Z,1.77
2023-07-21T02:29:06.983Z,1.97
2023-07-21T02:31:33.877Z,2.60
2023-07-21T02:34:00.759Z,1.97
2023-07-21T02:36:28.064Z,3.40
2023-07-21T02:38:55.107Z,1.73
2023-07-21T02:41:21.935Z,2.30
2023-07-21T02:43:48.864Z,2.77
2023-07-21T02:46:15.785Z,2.10
2023-07-21T02:48:42.686Z,2.40
2023-07-21T02:51:09.573Z,2.00
2023-07-21T02:53:36.426Z,1.90
2023-07-21T02:56:06.943Z,2.23
2023-07-21T02:58:33.898Z,1.80
2023-07-21T03:01:04.529Z,2.33
2023-07-21T03:03:33.803Z,2.10
2023-07-21T03:06:01.277Z,2.30
2023-07-21T03:08:30.487Z,2.00
2023-07-21T03:10:57.810Z,2.20
2023-07-21T03:13:25.870Z,1.90
2023-07-21T03:15:55.942Z,2.00
2023-07-21T03:18:23.382Z,1.90
2023-07-21T03:20:50.680Z,2.00
2023-07-21T03:23:17.687Z,2.23
2023-07-21T03:25:44.498Z,1.93
2023-07-21T03:28:11.302Z,1.67
2023-07-21T03:30:38.113Z,2.10
2023-07-21T03:33:05.017Z,2.00
2023-07-21T03:35:31.826Z,1.60
2023-07-21T03:37:59.035Z,2.43
2023-07-21T03:40:26.069Z,1.87
2023-07-21T03:42:54.338Z,2.30
2023-07-21T03:45:22.096Z,2.37
2023-07-21T03:47:49.858Z,1.90
2023-07-21T03:50:16.809Z,2.03
2023-07-21T03:52:43.631Z,2.23
2023-07-21T03:55:10.476Z,1.80
2023-07-21T03:57:37.712Z,2.43
2023-07-21T04:00:06.973Z,2.27
2023-07-21T04:02:33.870Z,2.07
2023-07-21T04:05:00.778Z,2.40
2023-07-21T04:07:27.788Z,2.03
2023-07-21T04:09:55.802Z,1.80
2023-07-21T04:12:23.062Z,2.57
2023-07-21T04:14:49.953Z,2.10
2023-07-21T04:17:17.008Z,2.10
2023-07-21T04:19:43.889Z,1.77
2023-07-21T04:22:10.737Z,2.23
2023-07-21T04:24:37.616Z,2.23
2023-07-21T04:27:04.787Z,2.67
2023-07-21T04:29:36.781Z,2.27
2023-07-21T04:32:04.256Z,2.27
2023-07-21T04:34:31.966Z,2.27
2023-07-21T04:36:59.105Z,2.80
2023-07-21T04:39:25.985Z,2.83
2023-07-21T04:41:52.829Z,2.60
2023-07-21T04:44:19.629Z,2.40
2023-07-21T04:46:47.712Z,2.50
2023-07-21T04:49:14.770Z,2.13
2023-07-21T04:51:41.897Z,2.43
2023-07-21T04:54:08.775Z,2.37
2023-07-21T04:56:36.221Z,2.73
2023-07-21T04:59:03.350Z,2.50
2023-07-21T05:01:30.432Z,2.37
2023-07-21T05:03:59.180Z,2.40
2023-07-21T05:06:26.433Z,2.83
2023-07-21T05:08:53.599Z,2.70
2023-07-21T05:11:20.581Z,2.47
2023-07-21T05:13:49.621Z,2.53
2023-07-21T05:16:16.489Z,2.73
2023-07-21T05:18:43.524Z,2.47
2023-07-21T05:21:10.396Z,2.50
2023-07-21T05:23:37.245Z,2.60
2023-07-21T05:26:04.148Z,2.37
2023-07-21T05:28:31.047Z,2.40
2023-07-21T05:30:58.324Z,2.30
2023-07-21T05:33:25.666Z,2.50
2023-07-21T05:35:52.550Z,1.83
2023-07-21T05:38:19.616Z,3.80
2023-07-21T05:40:57.996Z,2.10
2023-07-21T05:43:25.107Z,2.10
2023-07-21T05:45:52.007Z,2.40
2023-07-21T05:48:19.087Z,2.10
2023-07-21T05:50:47.048Z,2.40
2023-07-21T05:53:15.832Z,2.37
2023-07-21T05:55:43.409Z,2.40
2023-07-21T05:58:10.415Z,2.50
2023-07-21T06:00:38.167Z,2.00
2023-07-21T06:03:05.273Z,2.27
2023-07-21T06:05:33.400Z,2.57
2023-07-21T06:08:00.239Z,2.20
2023-07-21T06:10:27.092Z,2.07
2023-07-21T06:12:56.529Z,2.07
2023-07-21T06:15:25.599Z,2.40
2023-07-21T06:17:53.833Z,1.87
2023-07-21T06:20:26.205Z,2.43
2023-07-21T06:22:53.337Z,2.20
2023-07-21T06:25:20.297Z,2.27
2023-07-21T06:27:51.855Z,2.10
2023-07-21T06:30:18.802Z,2.40
2023-07-21T06:32:45.643Z,2.40
2023-07-21T06:35:12.609Z,2.20
2023-07-21T06:37:39.433Z,2.43
2023-07-21T06:40:08.771Z,2.40
2023-07-21T06:42:35.604Z,2.63
2023-07-21T06:45:02.530Z,2.10
2023-07-21T06:47:29.441Z,2.23
2023-07-21T06:49:56.259Z,2.50
2023-07-21T06:52:23.233Z,2.17
2023-07-21T06:54:50.518Z,1.90
2023-07-21T06:57:17.277Z,2.50
2023-07-21T06:59:44.147Z,2.30
2023-07-21T07:02:11.704Z,2.30
2023-07-21T07:04:38.839Z,2.47
2023-07-21T07:07:06.118Z,2.13
2023-07-21T07:09:33.041Z,2.13
2023-07-21T07:12:00.192Z,2.30
2023-07-21T07:14:28.287Z,2.37
2023-07-21T07:16:55.202Z,2.30
2023-07-21T07:19:22.499Z,2.40
2023-07-21T07:21:49.390Z,2.27
2023-07-21T07:24:16.223Z,2.00
2023-07-21T07:26:43.137Z,2.10
2023-07-21T07:29:09.989Z,2.43
2023-07-21T07:31:38.555Z,2.20
2023-07-21T07:34:05.892Z,2.00
2023-07-21T07:36:32.937Z,2.97
2023-07-21T07:38:59.757Z,2.63
2023-07-21T07:41:26.871Z,2.83
2023-07-21T07:43:54.417Z,2.43
2023-07-21T07:46:21.804Z,2.90
2023-07-21T07:48:49.222Z,2.60
2023-07-21T07:51:16.205Z,2.27
2023-07-21T07:53:43.093Z,2.20
2023-07-21T07:56:16.213Z,2.50
2023-07-21T07:58:43.521Z,1.97
2023-07-21T08:01:14.426Z,2.43
2023-07-21T08:03:45.595Z,1.90
2023-07-21T08:06:14.164Z,2.00
2023-07-21T08:08:41.525Z,1.73
2023-07-21T08:11:08.476Z,2.20
2023-07-21T08:13:35.823Z,1.87
2023-07-21T08:16:08.503Z,1.80
2023-07-21T08:18:35.371Z,1.77
2023-07-21T08:21:18.105Z,1.53
2023-07-21T08:23:45.232Z,1.73
2023-07-21T08:26:12.062Z,2.00
2023-07-21T08:28:38.868Z,1.50
2023-07-21T08:31:05.754Z,1.80
2023-07-21T08:33:32.610Z,1.57
2023-07-21T08:35:59.953Z,1.70
2023-07-21T08:38:26.911Z,1.10
2023-07-21T08:41:07.915Z,1.60
2023-07-21T08:43:35.246Z,1.43
2023-07-21T08:46:04.914Z,1.40
2023-07-21T08:48:32.302Z,1.60
2023-07-21T08:50:59.799Z,1.23
2023-07-21T08:53:27.518Z,1.30
2023-07-21T08:55:58.716Z,1.37
2023-07-21T08:58:27.728Z,1.37
2023-07-21T09:00:56.980Z,1.20
2023-07-21T09:03:33.633Z,1.47
2023-07-21T09:06:01.727Z,1.20
2023-07-21T09:08:30.897Z,1.90
2023-07-21T09:11:01.737Z,1.47
2023-07-21T09:13:30.673Z,1.77
2023-07-21T09:16:06.949Z,1.47
2023-07-21T09:18:42.762Z,1.47
2023-07-21T09:21:29.995Z,1.50
2023-07-21T09:24:10.334Z,1.43
2023-07-21T09:26:37.209Z,1.37
2023-07-21T09:29:18.193Z,1.40
2023-07-21T09:31:48.336Z,1.40
2023-07-21T09:34:15.228Z,1.20
2023-07-21T09:36:48.535Z,1.30
2023-07-21T09:39:16.975Z,1.03
2023-07-21T09:41:45.324Z,1.00
2023-07-21T09:44:13.623Z,1.17
2023-07-21T09:46:41.415Z,1.07
2023-07-21T09:49:08.336Z,1.23
2023-07-21T09:51:38.547Z,1.03
2023-07-21T09:54:06.873Z,1.00
2023-07-21T09:56:41.691Z,1.50
2023-07-21T09:59:11.189Z,0.90
2023-07-21T10:01:38.359Z,0.90
2023-07-21T10:04:05.613Z,1.07
2023-07-21T10:06:34.232Z,1.30
2023-07-21T10:09:02.417Z,0.90
2023-07-21T10:11:29.588Z,1.10
2023-07-21T10:13:56.394Z,1.27
2023-07-21T10:16:23.506Z,1.00
2023-07-21T10:19:08.022Z,1.10
2023-07-21T10:21:52.618Z,1.30
2023-07-21T10:24:27.564Z,0.90
2023-07-21T10:27:02.040Z,1.10
2023-07-21T10:29:28.982Z,1.33
2023-07-21T10:31:57.772Z,0.90
2023-07-21T10:34:26.616Z,1.00
2023-07-21T10:36:53.352Z,1.43
2023-07-21T10:39:32.340Z,1.00
2023-07-21T10:42:01.379Z,1.10
2023-07-21T10:44:35.357Z,1.27
2023-07-21T10:47:02.698Z,1.10
2023-07-21T10:49:29.597Z,0.90
2023-07-21T10:51:56.488Z,1.20
2023-07-21T10:54:23.326Z,1.20
2023-07-21T10:56:52.348Z,1.20
2023-07-21T10:59:20.693Z,1.07
2023-07-21T11:01:52.383Z,0.87
2023-07-21T11:04:21.465Z,1.17
2023-07-21T11:06:57.799Z,1.23
2023-07-21T11:09:25.580Z,1.20
2023-07-21T11:11:54.480Z,1.00
2023-07-21T11:14:25.102Z,1.00
2023-07-21T11:16:57.429Z,0.97
2023-07-21T11:19:26.411Z,1.10
2023-07-21T11:21:55.437Z,1.00
2023-07-21T11:24:26.912Z,0.90
2023-07-21T11:27:05.471Z,1.30
2023-07-21T11:29:42.139Z,1.10
2023-07-21T11:32:26.115Z,0.90
2023-07-21T11:34:57.875Z,0.97
2023-07-21T11:37:25.104Z,0.90
2023-07-21T11:39:59.188Z,1.10
2023-07-21T11:42:26.368Z,1.27
2023-07-21T11:44:54.293Z,1.93
2023-07-21T11:47:21.778Z,0.90
2023-07-21T11:49:49.582Z,0.97
2023-07-21T11:52:26.056Z,0.90
2023-07-21T11:54:53.890Z,1.00
2023-07-21T11:57:21.043Z,1.20
2023-07-21T11:59:47.887Z,0.93
2023-07-21T12:02:18.102Z,0.93
2023-07-21T12:04:45.415Z,1.07
2023-07-21T12:07:12.341Z,1.00
2023-07-21T12:09:39.808Z,1.00
2023-07-21T12:12:08.916Z,0.80
2023-07-21T12:14:35.946Z,0.70
2023-07-21T12:17:03.024Z,0.90
2023-07-21T12:19:30.121Z,0.90
2023-07-21T12:21:57.201Z,1.03
2023-07-21T12:24:24.177Z,1.10
2023-07-21T12:26:51.062Z,0.90
2023-07-21T12:29:33.247Z,0.90
2023-07-21T12:32:05.209Z,1.10
2023-07-21T12:34:32.243Z,0.93
2023-07-21T12:36:59.577Z,1.17
2023-07-21T12:39:26.780Z,1.00
2023-07-21T12:41:55.581Z,1.00
2023-07-21T12:44:24.000Z,0.90
2023-07-21T12:46:50.865Z,1.13
2023-07-21T12:49:17.922Z,1.00
2023-07-21T12:51:45.202Z,0.80
2023-07-21T12:54:12.328Z,0.67
2023-07-21T12:56:39.221Z,0.87
2023-07-21T12:59:06.614Z,0.90
2023-07-21T13:01:33.721Z,1.00
2023-07-21T13:04:00.814Z,0.80
2023-07-21T13:06:28.755Z,1.10
2023-07-21T13:08:57.049Z,0.80
2023-07-21T13:11:23.954Z,1.00
2023-07-21T13:13:52.857Z,0.80
2023-07-21T13:16:20.705Z,1.00
2023-07-21T13:18:48.021Z,1.10
2023-07-21T13:21:15.270Z,1.00
2023-07-21T13:23:42.395Z,1.17
2023-07-21T13:26:09.272Z,0.73
2023-07-21T13:28:36.068Z,0.67
2023-07-21T13:31:02.865Z,0.50
2023-07-21T13:33:29.655Z,0.80
2023-07-21T13:35:56.569Z,0.87
2023-07-21T13:38:24.104Z,1.13
2023-07-21T13:40:50.945Z,0.70
2023-07-21T13:43:17.777Z,1.00
2023-07-21T13:45:44.758Z,1.03
2023-07-21T13:48:14.137Z,1.00
2023-07-21T13:50:41.292Z,0.70
2023-07-21T13:53:08.096Z,0.93
2023-07-21T13:55:34.929Z,0.67
2023-07-21T13:58:02.495Z,1.03
2023-07-21T14:00:30.856Z,1.00
2023-07-21T14:02:57.835Z,0.80
2023-07-21T14:05:25.505Z,0.90
2023-07-21T14:07:52.583Z,0.80
2023-07-21T14:10:19.444Z,0.80
2023-07-21T14:12:47.300Z,0.90
2023-07-21T14:15:14.587Z,0.90
2023-07-21T14:17:41.735Z,0.80
2023-07-21T14:20:14.261Z,1.17
2023-07-21T14:22:41.323Z,1.10
2023-07-21T14:25:10.027Z,1.10
2023-07-21T14:27:38.683Z,0.80
2023-07-21T14:30:08.793Z,0.90
2023-07-21T14:32:35.675Z,1.10
2023-07-21T14:35:02.718Z,0.80
2023-07-21T14:37:30.430Z,0.80
2023-07-21T14:39:57.240Z,1.10
2023-07-21T14:42:24.139Z,0.80
2023-07-21T14:44:50.953Z,0.80
2023-07-21T14:47:17.779Z,0.80
2023-07-21T14:49:44.613Z,0.90
2023-07-21T14:52:11.840Z,0.70
2023-07-21T14:54:39.130Z,0.80
2023-07-21T14:57:07.188Z,0.73
2023-07-21T14:59:34.145Z,0.93
2023-07-21T15:02:01.291Z,0.90
2023-07-21T15:04:28.193Z,0.80
2023-07-21T15:06:55.148Z,0.90
2023-07-21T15:09:22.063Z,1.03
2023-07-21T15:11:49.300Z,0.70
2023-07-21T15:14:16.242Z,0.80
2023-07-21T15:16:43.064Z,0.87
2023-07-21T15:19:09.887Z,0.90
2023-07-21T15:21:36.641Z,0.70
2023-07-21T15:24:04.061Z,1.20
2023-07-21T15:26:31.053Z,0.93
2023-07-21T15:29:00.796Z,1.10
2023-07-21T15:31:27.925Z,1.00
2023-07-21T15:33:54.840Z,1.00
2023-07-21T15:36:21.862Z,1.00
2023-07-21T15:38:48.853Z,1.00
2023-07-21T15:41:16.080Z,1.30
2023-07-21T15:43:42.924Z,1.00
2023-07-21T15:46:09.839Z,0.93
2023-07-21T15:48:37.469Z,0.80
2023-07-21T15:51:06.685Z,0.90
2023-07-21T15:53:33.490Z,0.80
2023-07-21T15:56:00.260Z,1.00
2023-07-21T15:58:27.055Z,0.93
2023-07-21T16:00:59.100Z,1.10
2023-07-21T16:03:28.732Z,0.90
2023-07-21T16:05:56.470Z,0.90
2023-07-21T16:08:24.009Z,1.07
2023-07-21T16:10:50.867Z,1.07
2023-07-21T16:13:18.628Z,1.00
2023-07-21T16:15:46.158Z,1.00
2023-07-21T16:18:14.837Z,1.23
2023-07-21T16:20:43.629Z,1.07
2023-07-21T16:23:14.174Z,1.00
2023-07-21T16:25:41.456Z,0.90
2023-07-21T16:28:08.287Z,0.87
2023-07-21T16:30:37.584Z,0.90
2023-07-21T16:33:04.702Z,1.10
2023-07-21T16:35:31.666Z,0.90
2023-07-21T16:37:59.244Z,1.10
2023-07-21T16:40:26.318Z,1.10
2023-07-21T16:42:53.127Z,1.00
2023-07-21T16:45:19.944Z,1.20
2023-07-21T16:47:46.898Z,1.10
2023-07-21T16:50:13.977Z,1.00
2023-07-21T16:52:40.866Z,0.80
2023-07-21T16:55:08.862Z,0.90
2023-07-21T16:57:35.723Z,1.30
2023-07-21T17:00:12.065Z,0.97
2023-07-21T17:02:41.616Z,1.00
2023-07-21T17:05:29.004Z,1.00
2023-07-21T17:07:56.626Z,1.10
2023-07-21T17:10:23.417Z,1.10
2023-07-21T17:12:50.228Z,1.07
2023-07-21T17:15:17.260Z,1.10
2023-07-21T17:17:44.107Z,0.83
2023-07-21T17:20:14.453Z,1.13
2023-07-21T17:22:47.075Z,1.30
2023-07-21T17:25:14.499Z,1.37
2023-07-21T17:27:41.530Z,1.00
2023-07-21T17:30:08.977Z,1.03
2023-07-21T17:32:36.301Z,1.23
2023-07-21T17:35:03.265Z,1.10
2023-07-21T17:37:30.219Z,1.07
2023-07-21T17:39:57.870Z,1.10
2023-07-21T17:42:24.665Z,1.13
2023-07-21T17:44:51.516Z,1.03
2023-07-21T17:47:18.417Z,1.40
2023-07-21T17:49:45.216Z,1.43
2023-07-21T17:52:12.098Z,1.57
2023-07-21T17:54:38.891Z,1.20
2023-07-21T17:57:07.148Z,1.10
2023-07-21T17:59:34.122Z,1.13
2023-07-21T18:02:00.997Z,1.10
2023-07-21T18:04:27.868Z,1.10
2023-07-21T18:06:55.141Z,1.30
2023-07-21T18:09:22.021Z,1.10
2023-07-21T18:11:48.876Z,1.47
2023-07-21T18:14:15.720Z,1.10
2023-07-21T18:16:42.694Z,1.30
2023-07-21T18:19:09.503Z,1.33
2023-07-21T18:21:36.816Z,1.10
2023-07-21T18:24:03.801Z,1.13
2023-07-21T18:26:30.678Z,1.47
2023-07-21T18:29:00.376Z,1.70
2023-07-21T18:31:27.832Z,1.70
2023-07-21T18:33:55.356Z,2.03
2023-07-21T18:36:22.279Z,1.60
2023-07-21T18:38:50.232Z,2.17
2023-07-21T18:41:19.486Z,1.53
2023-07-21T18:43:46.412Z,1.40
2023-07-21T18:46:13.292Z,1.80
2023-07-21T18:48:40.354Z,1.87
2023-07-21T18:51:07.245Z,1.50
2023-07-21T18:53:34.171Z,1.50
2023-07-21T18:56:01.000Z,1.80
2023-07-21T18:58:27.797Z,1.53
2023-07-21T19:00:54.576Z,1.60
2023-07-21T19:03:21.409Z,1.47
2023-07-21T19:05:48.442Z,1.50
2023-07-21T19:08:15.223Z,1.10
2023-07-21T19:10:42.007Z,1.70
2023-07-21T19:13:08.935Z,1.30
2023-07-21T19:15:37.947Z,1.50
2023-07-21T19:18:05.009Z,1.70
2023-07-21T19:20:31.787Z,1.67
2023-07-21T19:22:59.032Z,2.20
2023-07-21T19:25:25.862Z,1.70
2023-07-21T19:27:53.770Z,1.67
2023-07-21T19:30:20.736Z,2.03
2023-07-21T19:32:47.584Z,1.43
2023-07-21T19:35:14.473Z,1.93
2023-07-21T19:37:41.727Z,1.70
2023-07-21T19:40:10.195Z,1.30
2023-07-21T19:42:37.523Z,1.63
2023-07-21T19:45:05.085Z,1.87
2023-07-21T19:47:32.188Z,1.50
2023-07-21T19:49:59.065Z,2.20
2023-07-21T19:52:26.141Z,1.50
2023-07-21T19:54:52.920Z,1.70
2023-07-21T19:57:22.339Z,1.60
2023-07-21T19:59:49.350Z,2.00
2023-07-21T20:02:16.321Z,1.77
2023-07-21T20:04:43.716Z,2.87
2023-07-21T20:07:10.577Z,2.03
2023-07-21T20:09:37.352Z,2.10
2023-07-21T20:12:04.388Z,2.40
2023-07-21T20:14:31.183Z,1.80
2023-07-21T20:16:58.090Z,2.90
2023-07-21T20:19:24.942Z,2.40
2023-07-21T20:21:51.705Z,2.30
2023-07-21T20:24:18.501Z,2.53
2023-07-21T20:26:45.397Z,2.70
2023-07-21T20:29:13.045Z,2.07
2023-07-21T20:31:39.979Z,2.30
2023-07-21T20:34:06.842Z,2.40
2023-07-21T20:36:33.698Z,2.97
2023-07-21T20:39:00.534Z,2.63
2023-07-21T20:41:27.333Z,2.83
2023-07-21T20:43:54.128Z,4.27
2023-07-21T20:46:21.003Z,2.40
2023-07-21T20:48:47.817Z,2.40
2023-07-21T20:51:14.577Z,2.83
2023-07-21T20:53:41.414Z,2.10
2023-07-21T20:56:08.599Z,2.80
2023-07-21T20:58:35.879Z,3.03
2023-07-21T21:01:02.701Z,2.63
2023-07-21T21:03:29.535Z,2.40
2023-07-21T21:06:00.221Z,2.73
2023-07-21T21:08:27.565Z,2.87
2023-07-21T21:10:54.802Z,2.57
2023-07-21T21:13:22.483Z,2.90
2023-07-21T21:15:49.771Z,2.50
2023-07-21T21:18:16.792Z,2.70
2023-07-21T21:20:45.875Z,3.13
2023-07-21T21:23:13.401Z,3.00
2023-07-21T21:25:40.256Z,3.60
2023-07-21T21:28:08.418Z,3.03
2023-07-21T21:30:35.278Z,3.23
2023-07-21T21:33:02.244Z,2.97
2023-07-21T21:35:29.103Z,2.70
2023-07-21T21:37:55.926Z,2.53
2023-07-21T21:40:22.696Z,3.07
2023-07-21T21:42:49.555Z,3.20
2023-07-21T21:45:16.386Z,3.27
2023-07-21T21:47:43.185Z,3.20
2023-07-21T21:50:10.247Z,3.17
2023-07-21T21:52:37.087Z,2.80
2023-07-21T21:55:05.128Z,2.43
2023-07-21T21:57:31.970Z,2.63
2023-07-21T21:59:58.737Z,2.80
2023-07-21T22:02:25.669Z,2.83
2023-07-21T22:04:52.601Z,3.10
2023-07-21T22:07:19.405Z,2.80
2023-07-21T22:09:46.147Z,2.83
2023-07-21T22:12:12.961Z,3.17
2023-07-21T22:14:54.631Z,2.87
2023-07-21T22:17:24.083Z,3.00
2023-07-21T22:20:03.630Z,3.27
2023-07-21T22:22:36.268Z,3.20
2023-07-21T22:25:03.627Z,2.73
2023-07-21T22:27:30.679Z,2.67
2023-07-21T22:29:57.448Z,3.27
2023-07-21T22:32:24.454Z,3.80
2023-07-21T22:34:51.611Z,3.70
2023-07-21T22:37:18.460Z,3.23
2023-07-21T22:39:45.215Z,3.70
2023-07-21T22:42:11.979Z,3.40
2023-07-21T22:44:38.811Z,3.43
2023-07-21T22:47:05.863Z,3.00
2023-07-21T22:49:32.646Z,2.93
2023-07-21T22:51:59.437Z,3.27
2023-07-21T22:54:26.181Z,3.27
2023-07-21T22:56:53.017Z,3.77
2023-07-21T22:59:19.785Z,3.27
2023-07-21T23:01:46.653Z,3.47
2023-07-21T23:04:13.510Z,3.30
2023-07-21T23:06:42.623Z,3.33
2023-07-21T23:09:09.563Z,3.40
2023-07-21T23:11:36.381Z,3.17
2023-07-21T23:14:03.169Z,3.30
2023-07-21T23:16:30.284Z,4.23
2023-07-21T23:18:57.352Z,4.67
2023-07-21T23:21:24.394Z,3.40
2023-07-21T23:23:51.320Z,3.70
2023-07-21T23:26:18.133Z,3.43
2023-07-21T23:28:44.908Z,4.03
2023-07-21T23:31:12.500Z,3.60
2023-07-21T23:33:39.317Z,3.13
2023-07-21T23:36:06.214Z,3.90
2023-07-21T23:38:33.867Z,3.70
2023-07-21T23:41:00.837Z,3.80
2023-07-21T23:43:27.668Z,4.03
2023-07-21T23:45:58.877Z,3.73
2023-07-21T23:48:27.003Z,4.03
2023-07-21T23:50:53.868Z,3.73
2023-07-21T23:53:20.713Z,3.40
2023-07-21T23:55:47.525Z,3.57
2023-07-21T23:58:14.433Z,3.87
